sensor_id;sensor_type;location;lat;lon;timestamp;temperature;humidity
4874;DHT22;2451;49.970;9.068;2023-06-22T00:02:08;22.50;99.90
4874;DHT22;2451;49.970;9.068;2023-06-22T00:04:34;22.50;99.90
4874;DHT22;2451;49.970;9.068;2023-06-22T00:06:59;22.40;99.90
4874;DHT22;2451;49.970;9.068;2023-06-22T00:09:25;22.40;99.90
4874;DHT22;2451;49.970;9.068;2023-06-22T00:11:50;22.40;99.90
4874;DHT22;2451;49.970;9.068;2023-06-22T00:14:16;22.30;99.90
4874;DHT22;2451;49.970;9.068;2023-06-22T00:16:41;22.30;99.90
4874;DHT22;2451;49.970;9.068;2023-06-22T00:19:08;22.30;99.90
4874;DHT22;2451;49.970;9.068;2023-06-22T00:21:36;22.30;99.90
4874;DHT22;2451;49.970;9.068;2023-06-22T00:24:03;22.30;99.90
4874;DHT22;2451;49.970;9.068;2023-06-22T00:26:29;22.40;99.90
4874;DHT22;2451;49.970;9.068;2023-06-22T00:28:54;22.40;99.90
4874;DHT22;2451;49.970;9.068;2023-06-22T00:31:20;22.40;99.90
4874;DHT22;2451;49.970;9.068;2023-06-22T00:33:45;22.40;99.90
4874;DHT22;2451;49.970;9.068;2023-06-22T00:36:11;22.40;99.90
4874;DHT22;2451;49.970;9.068;2023-06-22T00:38:41;22.50;99.90
4874;DHT22;2451;49.970;9.068;2023-06-22T00:41:07;22.50;99.90
4874;DHT22;2451;49.970;9.068;2023-06-22T00:43:33;22.60;99.90
4874;DHT22;2451;49.970;9.068;2023-06-22T00:45:58;22.60;99.90
4874;DHT22;2451;49.970;9.068;2023-06-22T00:48:24;22.60;99.90
4874;DHT22;2451;49.970;9.068;2023-06-22T00:50:50;22.70;99.90
4874;DHT22;2451;49.970;9.068;2023-06-22T00:53:18;22.70;99.90
4874;DHT22;2451;49.970;9.068;2023-06-22T00:55:45;22.70;99.90
4874;DHT22;2451;49.970;9.068;2023-06-22T00:58:17;22.60;99.90
4874;DHT22;2451;49.970;9.068;2023-06-22T01:00:47;22.50;99.90
4874;DHT22;2451;49.970;9.068;2023-06-22T01:03:13;22.50;99.90
4874;DHT22;2451;49.970;9.068;2023-06-22T01:05:39;22.50;99.90
4874;DHT22;2451;49.970;9.068;2023-06-22T01:08:27;22.40;99.90
4874;DHT22;2451;49.970;9.068;2023-06-22T01:11:09;22.40;99.90
4874;DHT22;2451;49.970;9.068;2023-06-22T01:14:38;22.40;99.90
4874;DHT22;2451;49.970;9.068;2023-06-22T01:16:44;22.40;99.90
4874;DHT22;2451;49.970;9.068;2023-06-22T01:19:37;22.40;99.90
4874;DHT22;2451;49.970;9.068;2023-06-22T01:22:05;22.30;99.90
4874;DHT22;2451;49.970;9.068;2023-06-22T01:27:20;22.30;99.90
4874;DHT22;2451;49.970;9.068;2023-06-22T01:29:52;22.30;99.90
4874;DHT22;2451;49.970;9.068;2023-06-22T01:32:19;22.20;99.90
4874;DHT22;2451;49.970;9.068;2023-06-22T01:34:46;22.20;99.90
4874;DHT22;2451;49.970;9.068;2023-06-22T01:37:14;22.10;99.90
4874;DHT22;2451;49.970;9.068;2023-06-22T01:39:40;22.10;99.90
4874;DHT22;2451;49.970;9.068;2023-06-22T01:42:06;22.00;99.90
4874;DHT22;2451;49.970;9.068;2023-06-22T01:44:32;22.00;99.90
4874;DHT22;2451;49.970;9.068;2023-06-22T01:46:59;22.00;99.90
4874;DHT22;2451;49.970;9.068;2023-06-22T01:49:25;21.90;99.90
4874;DHT22;2451;49.970;9.068;2023-06-22T01:51:51;22.00;99.90
4874;DHT22;2451;49.970;9.068;2023-06-22T01:54:16;21.90;99.90
4874;DHT22;2451;49.970;9.068;2023-06-22T01:56:42;21.80;99.90
4874;DHT22;2451;49.970;9.068;2023-06-22T01:59:17;21.70;99.90
4874;DHT22;2451;49.970;9.068;2023-06-22T02:01:57;21.60;99.90
4874;DHT22;2451;49.970;9.068;2023-06-22T02:04:29;21.50;99.90
4874;DHT22;2451;49.970;9.068;2023-06-22T02:06:59;21.50;99.90
4874;DHT22;2451;49.970;9.068;2023-06-22T02:09:28;21.40;99.90
4874;DHT22;2451;49.970;9.068;2023-06-22T02:11:56;21.30;99.90
4874;DHT22;2451;49.970;9.068;2023-06-22T02:14:23;21.30;99.90
4874;DHT22;2451;49.970;9.068;2023-06-22T02:16:51;21.30;99.90
4874;DHT22;2451;49.970;9.068;2023-06-22T02:19:16;21.30;99.90
4874;DHT22;2451;49.970;9.068;2023-06-22T02:21:44;21.30;99.90
4874;DHT22;2451;49.970;9.068;2023-06-22T02:24:10;21.30;99.90
4874;DHT22;2451;49.970;9.068;2023-06-22T02:26:36;21.40;99.90
4874;DHT22;2451;49.970;9.068;2023-06-22T02:29:03;21.40;99.90
4874;DHT22;2451;49.970;9.068;2023-06-22T02:31:29;21.40;99.90
4874;DHT22;2451;49.970;9.068;2023-06-22T02:33:57;21.40;99.90
4874;DHT22;2451;49.970;9.068;2023-06-22T02:36:23;21.50;99.90
4874;DHT22;2451;49.970;9.068;2023-06-22T02:38:50;21.50;99.90
4874;DHT22;2451;49.970;9.068;2023-06-22T02:41:16;21.60;99.90
4874;DHT22;2451;49.970;9.068;2023-06-22T02:43:47;21.60;99.90
4874;DHT22;2451;49.970;9.068;2023-06-22T02:46:13;21.60;99.90
4874;DHT22;2451;49.970;9.068;2023-06-22T02:48:40;21.60;99.90
4874;DHT22;2451;49.970;9.068;2023-06-22T02:51:05;21.70;99.90
4874;DHT22;2451;49.970;9.068;2023-06-22T02:53:31;21.70;99.90
4874;DHT22;2451;49.970;9.068;2023-06-22T02:55:57;21.70;99.90
4874;DHT22;2451;49.970;9.068;2023-06-22T02:58:23;21.70;99.90
4874;DHT22;2451;49.970;9.068;2023-06-22T03:00:49;21.70;99.90
4874;DHT22;2451;49.970;9.068;2023-06-22T03:03:19;21.70;99.90
4874;DHT22;2451;49.970;9.068;2023-06-22T03:05:44;21.70;99.90
4874;DHT22;2451;49.970;9.068;2023-06-22T03:08:10;21.60;99.90
4874;DHT22;2451;49.970;9.068;2023-06-22T03:10:36;21.60;99.90
4874;DHT22;2451;49.970;9.068;2023-06-22T03:13:01;21.60;99.90
4874;DHT22;2451;49.970;9.068;2023-06-22T03:15:27;21.60;99.90
4874;DHT22;2451;49.970;9.068;2023-06-22T03:17:54;21.60;99.90
4874;DHT22;2451;49.970;9.068;2023-06-22T03:20:20;21.60;99.90
4874;DHT22;2451;49.970;9.068;2023-06-22T03:22:46;21.60;99.90
4874;DHT22;2451;49.970;9.068;2023-06-22T03:25:11;21.60;99.90
4874;DHT22;2451;49.970;9.068;2023-06-22T03:27:41;21.60;99.90
4874;DHT22;2451;49.970;9.068;2023-06-22T03:30:09;21.60;99.90
4874;DHT22;2451;49.970;9.068;2023-06-22T03:32:35;21.50;99.90
4874;DHT22;2451;49.970;9.068;2023-06-22T03:35:01;21.40;99.90
4874;DHT22;2451;49.970;9.068;2023-06-22T03:37:27;21.40;99.90
4874;DHT22;2451;49.970;9.068;2023-06-22T03:39:54;21.40;99.90
4874;DHT22;2451;49.970;9.068;2023-06-22T03:42:19;21.40;99.90
4874;DHT22;2451;49.970;9.068;2023-06-22T03:44:45;21.40;99.90
4874;DHT22;2451;49.970;9.068;2023-06-22T03:47:12;21.40;99.90
4874;DHT22;2451;49.970;9.068;2023-06-22T03:49:37;21.40;99.90
4874;DHT22;2451;49.970;9.068;2023-06-22T03:52:03;21.40;99.90
4874;DHT22;2451;49.970;9.068;2023-06-22T03:54:30;21.40;99.90
4874;DHT22;2451;49.970;9.068;2023-06-22T03:56:57;21.40;99.90
4874;DHT22;2451;49.970;9.068;2023-06-22T03:59:23;21.40;99.90
4874;DHT22;2451;49.970;9.068;2023-06-22T04:01:48;21.40;99.90
4874;DHT22;2451;49.970;9.068;2023-06-22T04:04:14;21.40;99.90
4874;DHT22;2451;49.970;9.068;2023-06-22T04:06:40;21.40;99.90
4874;DHT22;2451;49.970;9.068;2023-06-22T04:09:06;21.40;99.90
4874;DHT22;2451;49.970;9.068;2023-06-22T04:11:31;21.40;99.90
4874;DHT22;2451;49.970;9.068;2023-06-22T04:13:57;21.40;99.90
4874;DHT22;2451;49.970;9.068;2023-06-22T04:16:22;21.50;99.90
4874;DHT22;2451;49.970;9.068;2023-06-22T04:18:48;21.50;99.90
4874;DHT22;2451;49.970;9.068;2023-06-22T04:21:14;21.50;99.90
4874;DHT22;2451;49.970;9.068;2023-06-22T04:23:39;21.60;99.90
4874;DHT22;2451;49.970;9.068;2023-06-22T04:26:05;21.60;99.90
4874;DHT22;2451;49.970;9.068;2023-06-22T04:28:30;21.70;99.90
4874;DHT22;2451;49.970;9.068;2023-06-22T04:31:01;21.70;99.90
4874;DHT22;2451;49.970;9.068;2023-06-22T04:33:27;21.70;99.90
4874;DHT22;2451;49.970;9.068;2023-06-22T04:35:52;21.70;99.90
4874;DHT22;2451;49.970;9.068;2023-06-22T04:38:18;21.70;99.90
4874;DHT22;2451;49.970;9.068;2023-06-22T04:40:46;21.70;99.90
4874;DHT22;2451;49.970;9.068;2023-06-22T04:43:12;21.80;99.90
4874;DHT22;2451;49.970;9.068;2023-06-22T04:45:37;21.80;99.90
4874;DHT22;2451;49.970;9.068;2023-06-22T04:48:04;21.80;99.90
4874;DHT22;2451;49.970;9.068;2023-06-22T04:50:30;21.80;99.90
4874;DHT22;2451;49.970;9.068;2023-06-22T04:52:55;21.80;99.90
4874;DHT22;2451;49.970;9.068;2023-06-22T04:55:21;21.70;99.90
4874;DHT22;2451;49.970;9.068;2023-06-22T04:57:47;21.70;99.90
4874;DHT22;2451;49.970;9.068;2023-06-22T05:00:18;21.70;99.90
4874;DHT22;2451;49.970;9.068;2023-06-22T05:02:45;21.80;99.90
4874;DHT22;2451;49.970;9.068;2023-06-22T05:05:12;21.80;99.90
4874;DHT22;2451;49.970;9.068;2023-06-22T05:07:47;21.90;99.90
4874;DHT22;2451;49.970;9.068;2023-06-22T05:10:18;22.00;99.90
4874;DHT22;2451;49.970;9.068;2023-06-22T05:12:44;22.00;99.90
4874;DHT22;2451;49.970;9.068;2023-06-22T05:15:10;22.10;99.90
4874;DHT22;2451;49.970;9.068;2023-06-22T05:17:36;22.10;99.90
4874;DHT22;2451;49.970;9.068;2023-06-22T05:20:02;22.20;99.90
4874;DHT22;2451;49.970;9.068;2023-06-22T05:22:31;22.20;99.90
4874;DHT22;2451;49.970;9.068;2023-06-22T05:24:57;22.30;99.90
4874;DHT22;2451;49.970;9.068;2023-06-22T05:27:22;22.30;99.90
4874;DHT22;2451;49.970;9.068;2023-06-22T05:29:48;22.30;99.90
4874;DHT22;2451;49.970;9.068;2023-06-22T05:32:13;22.40;99.90
4874;DHT22;2451;49.970;9.068;2023-06-22T05:34:39;22.60;99.90
4874;DHT22;2451;49.970;9.068;2023-06-22T05:37:05;22.60;99.90
4874;DHT22;2451;49.970;9.068;2023-06-22T05:39:31;22.70;99.90
4874;DHT22;2451;49.970;9.068;2023-06-22T05:41:57;22.80;99.90
4874;DHT22;2451;49.970;9.068;2023-06-22T05:44:22;22.90;99.90
4874;DHT22;2451;49.970;9.068;2023-06-22T05:46:48;22.90;99.90
4874;DHT22;2451;49.970;9.068;2023-06-22T05:49:14;22.90;99.90
4874;DHT22;2451;49.970;9.068;2023-06-22T05:51:40;23.00;99.90
4874;DHT22;2451;49.970;9.068;2023-06-22T05:54:06;23.00;99.90
4874;DHT22;2451;49.970;9.068;2023-06-22T05:56:33;23.00;99.90
4874;DHT22;2451;49.970;9.068;2023-06-22T05:58:58;23.20;99.90
4874;DHT22;2451;49.970;9.068;2023-06-22T06:01:24;23.30;99.90
4874;DHT22;2451;49.970;9.068;2023-06-22T06:03:51;23.40;99.90
4874;DHT22;2451;49.970;9.068;2023-06-22T06:06:18;23.50;99.90
4874;DHT22;2451;49.970;9.068;2023-06-22T06:08:43;23.70;99.90
4874;DHT22;2451;49.970;9.068;2023-06-22T06:11:09;23.80;99.90
4874;DHT22;2451;49.970;9.068;2023-06-22T06:13:34;23.90;99.90
4874;DHT22;2451;49.970;9.068;2023-06-22T06:16:00;24.00;99.90
4874;DHT22;2451;49.970;9.068;2023-06-22T06:18:26;24.00;99.90
4874;DHT22;2451;49.970;9.068;2023-06-22T06:20:51;24.20;99.90
4874;DHT22;2451;49.970;9.068;2023-06-22T06:23:17;24.20;99.90
4874;DHT22;2451;49.970;9.068;2023-06-22T06:25:42;24.30;99.90
4874;DHT22;2451;49.970;9.068;2023-06-22T06:28:09;24.40;99.90
4874;DHT22;2451;49.970;9.068;2023-06-22T06:30:34;24.50;99.90
4874;DHT22;2451;49.970;9.068;2023-06-22T06:33:02;24.50;99.90
4874;DHT22;2451;49.970;9.068;2023-06-22T06:35:28;24.60;99.90
4874;DHT22;2451;49.970;9.068;2023-06-22T06:37:53;24.80;99.90
4874;DHT22;2451;49.970;9.068;2023-06-22T06:40:19;24.90;99.90
4874;DHT22;2451;49.970;9.068;2023-06-22T06:42:49;25.00;99.90
4874;DHT22;2451;49.970;9.068;2023-06-22T06:45:19;25.00;99.90
4874;DHT22;2451;49.970;9.068;2023-06-22T06:47:46;25.00;99.90
4874;DHT22;2451;49.970;9.068;2023-06-22T06:50:12;25.20;99.90
4874;DHT22;2451;49.970;9.068;2023-06-22T06:52:38;25.20;99.90
4874;DHT22;2451;49.970;9.068;2023-06-22T06:55:04;25.10;99.90
4874;DHT22;2451;49.970;9.068;2023-06-22T06:57:30;25.20;99.90
4874;DHT22;2451;49.970;9.068;2023-06-22T06:59:56;25.40;99.90
4874;DHT22;2451;49.970;9.068;2023-06-22T07:02:22;25.50;99.90
4874;DHT22;2451;49.970;9.068;2023-06-22T07:04:48;25.70;99.90
4874;DHT22;2451;49.970;9.068;2023-06-22T07:07:14;26.00;99.90
4874;DHT22;2451;49.970;9.068;2023-06-22T07:09:40;26.20;99.90
4874;DHT22;2451;49.970;9.068;2023-06-22T07:12:06;26.40;99.90
4874;DHT22;2451;49.970;9.068;2023-06-22T07:14:32;26.50;99.90
4874;DHT22;2451;49.970;9.068;2023-06-22T07:16:57;26.60;99.90
4874;DHT22;2451;49.970;9.068;2023-06-22T07:19:27;26.70;99.90
4874;DHT22;2451;49.970;9.068;2023-06-22T07:21:53;27.00;99.90
4874;DHT22;2451;49.970;9.068;2023-06-22T07:24:20;27.10;99.90
4874;DHT22;2451;49.970;9.068;2023-06-22T07:26:50;27.40;99.90
4874;DHT22;2451;49.970;9.068;2023-06-22T07:29:17;27.50;99.90
4874;DHT22;2451;49.970;9.068;2023-06-22T07:31:42;27.70;99.90
4874;DHT22;2451;49.970;9.068;2023-06-22T07:34:08;27.80;99.90
4874;DHT22;2451;49.970;9.068;2023-06-22T07:36:34;27.90;99.90
4874;DHT22;2451;49.970;9.068;2023-06-22T07:39:04;27.90;99.90
4874;DHT22;2451;49.970;9.068;2023-06-22T07:41:30;28.00;99.90
4874;DHT22;2451;49.970;9.068;2023-06-22T07:43:56;28.10;99.90
4874;DHT22;2451;49.970;9.068;2023-06-22T07:46:22;28.20;99.90
4874;DHT22;2451;49.970;9.068;2023-06-22T07:48:48;28.40;99.90
4874;DHT22;2451;49.970;9.068;2023-06-22T07:51:13;28.60;99.90
4874;DHT22;2451;49.970;9.068;2023-06-22T07:53:41;28.40;99.90
4874;DHT22;2451;49.970;9.068;2023-06-22T07:56:07;28.40;99.90
4874;DHT22;2451;49.970;9.068;2023-06-22T07:58:35;28.40;99.90
4874;DHT22;2451;49.970;9.068;2023-06-22T08:01:01;28.60;99.90
4874;DHT22;2451;49.970;9.068;2023-06-22T08:03:26;28.60;99.90
4874;DHT22;2451;49.970;9.068;2023-06-22T08:05:52;28.70;99.90
4874;DHT22;2451;49.970;9.068;2023-06-22T08:08:17;28.80;99.90
4874;DHT22;2451;49.970;9.068;2023-06-22T08:10:43;28.80;99.90
4874;DHT22;2451;49.970;9.068;2023-06-22T08:13:09;28.80;99.90
4874;DHT22;2451;49.970;9.068;2023-06-22T08:15:35;28.90;99.90
4874;DHT22;2451;49.970;9.068;2023-06-22T08:18:01;29.10;99.90
4874;DHT22;2451;49.970;9.068;2023-06-22T08:20:26;29.20;99.90
4874;DHT22;2451;49.970;9.068;2023-06-22T08:22:54;29.20;99.90
4874;DHT22;2451;49.970;9.068;2023-06-22T08:25:20;29.20;99.90
4874;DHT22;2451;49.970;9.068;2023-06-22T08:27:46;29.20;99.90
4874;DHT22;2451;49.970;9.068;2023-06-22T08:30:15;29.30;99.90
4874;DHT22;2451;49.970;9.068;2023-06-22T08:32:42;29.30;99.90
4874;DHT22;2451;49.970;9.068;2023-06-22T08:35:08;29.50;99.90
4874;DHT22;2451;49.970;9.068;2023-06-22T08:37:34;29.80;99.90
4874;DHT22;2451;49.970;9.068;2023-06-22T08:40:01;30.00;99.90
4874;DHT22;2451;49.970;9.068;2023-06-22T08:42:29;30.10;99.90
4874;DHT22;2451;49.970;9.068;2023-06-22T08:44:55;30.10;99.90
4874;DHT22;2451;49.970;9.068;2023-06-22T08:47:21;30.30;99.90
4874;DHT22;2451;49.970;9.068;2023-06-22T08:49:46;30.60;99.90
4874;DHT22;2451;49.970;9.068;2023-06-22T08:52:12;30.80;99.90
4874;DHT22;2451;49.970;9.068;2023-06-22T08:54:38;31.00;99.90
4874;DHT22;2451;49.970;9.068;2023-06-22T08:57:04;30.90;99.90
4874;DHT22;2451;49.970;9.068;2023-06-22T08:59:29;31.00;99.90
4874;DHT22;2451;49.970;9.068;2023-06-22T09:01:55;31.10;99.90
4874;DHT22;2451;49.970;9.068;2023-06-22T09:04:22;31.20;99.90
4874;DHT22;2451;49.970;9.068;2023-06-22T09:06:48;31.10;99.90
4874;DHT22;2451;49.970;9.068;2023-06-22T09:09:13;31.00;99.90
4874;DHT22;2451;49.970;9.068;2023-06-22T09:11:40;31.00;99.90
4874;DHT22;2451;49.970;9.068;2023-06-22T09:14:06;31.10;99.90
4874;DHT22;2451;49.970;9.068;2023-06-22T09:16:34;31.00;99.90
4874;DHT22;2451;49.970;9.068;2023-06-22T09:18:59;30.80;99.90
4874;DHT22;2451;49.970;9.068;2023-06-22T09:21:25;30.80;99.90
4874;DHT22;2451;49.970;9.068;2023-06-22T09:23:51;30.80;99.90
4874;DHT22;2451;49.970;9.068;2023-06-22T09:26:17;31.00;99.90
4874;DHT22;2451;49.970;9.068;2023-06-22T09:28:43;31.10;99.90
4874;DHT22;2451;49.970;9.068;2023-06-22T09:31:09;31.10;99.90
4874;DHT22;2451;49.970;9.068;2023-06-22T09:33:35;31.30;99.90
4874;DHT22;2451;49.970;9.068;2023-06-22T09:36:01;31.50;99.90
4874;DHT22;2451;49.970;9.068;2023-06-22T09:38:26;31.50;99.90
4874;DHT22;2451;49.970;9.068;2023-06-22T09:40:52;31.70;99.90
4874;DHT22;2451;49.970;9.068;2023-06-22T09:43:18;31.90;99.90
4874;DHT22;2451;49.970;9.068;2023-06-22T09:45:43;32.00;99.90
4874;DHT22;2451;49.970;9.068;2023-06-22T09:48:09;31.70;99.90
4874;DHT22;2451;49.970;9.068;2023-06-22T09:50:37;31.90;99.90
4874;DHT22;2451;49.970;9.068;2023-06-22T09:53:03;31.90;99.90
4874;DHT22;2451;49.970;9.068;2023-06-22T09:55:28;32.00;99.90
4874;DHT22;2451;49.970;9.068;2023-06-22T09:57:54;32.00;99.90
4874;DHT22;2451;49.970;9.068;2023-06-22T10:00:21;32.00;99.90
4874;DHT22;2451;49.970;9.068;2023-06-22T10:02:47;32.10;99.90
4874;DHT22;2451;49.970;9.068;2023-06-22T10:05:13;32.00;99.90
4874;DHT22;2451;49.970;9.068;2023-06-22T10:07:39;31.90;99.90
4874;DHT22;2451;49.970;9.068;2023-06-22T10:10:08;31.60;99.90
4874;DHT22;2451;49.970;9.068;2023-06-22T10:12:34;31.60;99.90
4874;DHT22;2451;49.970;9.068;2023-06-22T10:14:59;31.90;99.90
4874;DHT22;2451;49.970;9.068;2023-06-22T10:17:25;32.10;99.50
4874;DHT22;2451;49.970;9.068;2023-06-22T10:19:50;32.30;99.80
4874;DHT22;2451;49.970;9.068;2023-06-22T10:22:16;32.60;99.50
4874;DHT22;2451;49.970;9.068;2023-06-22T10:24:42;32.80;98.80
4874;DHT22;2451;49.970;9.068;2023-06-22T10:27:11;33.00;98.00
4874;DHT22;2451;49.970;9.068;2023-06-22T10:29:41;33.00;96.70
4874;DHT22;2451;49.970;9.068;2023-06-22T10:32:07;33.00;96.70
4874;DHT22;2451;49.970;9.068;2023-06-22T10:34:32;32.80;96.40
4874;DHT22;2451;49.970;9.068;2023-06-22T10:36:59;32.70;97.00
4874;DHT22;2451;49.970;9.068;2023-06-22T10:39:24;32.80;96.90
4874;DHT22;2451;49.970;9.068;2023-06-22T10:41:50;32.90;96.30
4874;DHT22;2451;49.970;9.068;2023-06-22T10:44:15;32.80;96.50
4874;DHT22;2451;49.970;9.068;2023-06-22T10:46:42;32.90;96.70
4874;DHT22;2451;49.970;9.068;2023-06-22T10:49:08;32.90;96.50
4874;DHT22;2451;49.970;9.068;2023-06-22T10:51:34;33.10;96.10
4874;DHT22;2451;49.970;9.068;2023-06-22T10:53:59;33.30;95.40
4874;DHT22;2451;49.970;9.068;2023-06-22T10:56:25;33.30;95.50
4874;DHT22;2451;49.970;9.068;2023-06-22T10:58:50;33.20;95.30
4874;DHT22;2451;49.970;9.068;2023-06-22T11:01:16;33.20;95.30
4874;DHT22;2451;49.970;9.068;2023-06-22T11:03:41;33.10;95.00
4874;DHT22;2451;49.970;9.068;2023-06-22T11:06:07;32.90;95.00
4874;DHT22;2451;49.970;9.068;2023-06-22T11:08:32;32.80;95.50
4874;DHT22;2451;49.970;9.068;2023-06-22T11:10:58;32.90;95.70
4874;DHT22;2451;49.970;9.068;2023-06-22T11:13:23;33.20;95.40
4874;DHT22;2451;49.970;9.068;2023-06-22T11:15:50;33.30;94.50
4874;DHT22;2451;49.970;9.068;2023-06-22T11:18:15;33.30;94.50
4874;DHT22;2451;49.970;9.068;2023-06-22T11:20:42;33.30;95.50
4874;DHT22;2451;49.970;9.068;2023-06-22T11:23:07;33.70;94.40
4874;DHT22;2451;49.970;9.068;2023-06-22T11:25:33;33.70;93.70
4874;DHT22;2451;49.970;9.068;2023-06-22T11:28:02;33.20;94.00
4874;DHT22;2451;49.970;9.068;2023-06-22T11:30:28;32.70;95.20
4874;DHT22;2451;49.970;9.068;2023-06-22T11:32:53;32.30;95.60
4874;DHT22;2451;49.970;9.068;2023-06-22T11:35:19;32.00;96.10
4874;DHT22;2451;49.970;9.068;2023-06-22T11:37:44;31.70;96.30
4874;DHT22;2451;49.970;9.068;2023-06-22T11:40:10;31.30;97.00
4874;DHT22;2451;49.970;9.068;2023-06-22T11:42:36;31.40;98.20
4874;DHT22;2451;49.970;9.068;2023-06-22T11:45:02;31.70;97.10
4874;DHT22;2451;49.970;9.068;2023-06-22T11:47:30;32.00;96.80
4874;DHT22;2451;49.970;9.068;2023-06-22T11:49:55;32.40;96.80
4874;DHT22;2451;49.970;9.068;2023-06-22T11:52:21;32.50;96.40
4874;DHT22;2451;49.970;9.068;2023-06-22T11:54:47;32.40;97.00
4874;DHT22;2451;49.970;9.068;2023-06-22T11:57:12;32.20;96.60
4874;DHT22;2451;49.970;9.068;2023-06-22T11:59:38;31.80;97.00
4874;DHT22;2451;49.970;9.068;2023-06-22T12:02:03;31.60;97.40
4874;DHT22;2451;49.970;9.068;2023-06-22T12:04:30;31.40;97.70
4874;DHT22;2451;49.970;9.068;2023-06-22T12:06:56;31.40;98.50
4874;DHT22;2451;49.970;9.068;2023-06-22T12:09:21;31.80;98.20
4874;DHT22;2451;49.970;9.068;2023-06-22T12:11:47;32.30;97.90
4874;DHT22;2451;49.970;9.068;2023-06-22T12:14:13;32.80;97.40
4874;DHT22;2451;49.970;9.068;2023-06-22T12:16:38;33.10;96.90
4874;DHT22;2451;49.970;9.068;2023-06-22T12:19:04;33.10;96.40
4874;DHT22;2451;49.970;9.068;2023-06-22T12:21:29;32.90;96.40
4874;DHT22;2451;49.970;9.068;2023-06-22T12:23:55;33.20;96.60
4874;DHT22;2451;49.970;9.068;2023-06-22T12:26:21;33.40;95.70
4874;DHT22;2451;49.970;9.068;2023-06-22T12:28:47;33.30;94.90
4874;DHT22;2451;49.970;9.068;2023-06-22T12:31:13;33.10;95.70
4874;DHT22;2451;49.970;9.068;2023-06-22T12:33:39;33.00;95.50
4874;DHT22;2451;49.970;9.068;2023-06-22T12:36:05;32.80;96.00
4874;DHT22;2451;49.970;9.068;2023-06-22T12:38:30;32.70;96.00
4874;DHT22;2451;49.970;9.068;2023-06-22T12:40:56;32.80;96.40
4874;DHT22;2451;49.970;9.068;2023-06-22T12:43:21;32.90;95.20
4874;DHT22;2451;49.970;9.068;2023-06-22T12:45:47;33.00;95.60
4874;DHT22;2451;49.970;9.068;2023-06-22T12:48:12;33.20;95.70
4874;DHT22;2451;49.970;9.068;2023-06-22T12:50:38;33.20;95.20
4874;DHT22;2451;49.970;9.068;2023-06-22T12:53:04;33.30;94.80
4874;DHT22;2451;49.970;9.068;2023-06-22T12:55:31;33.10;94.70
4874;DHT22;2451;49.970;9.068;2023-06-22T12:57:57;33.00;95.10
4874;DHT22;2451;49.970;9.068;2023-06-22T13:00:22;32.90;95.70
4874;DHT22;2451;49.970;9.068;2023-06-22T13:02:48;32.80;95.20
4874;DHT22;2451;49.970;9.068;2023-06-22T13:05:14;32.60;95.40
4874;DHT22;2451;49.970;9.068;2023-06-22T13:07:39;32.40;95.60
4874;DHT22;2451;49.970;9.068;2023-06-22T13:10:05;32.30;95.20
4874;DHT22;2451;49.970;9.068;2023-06-22T13:12:32;32.20;95.40
4874;DHT22;2451;49.970;9.068;2023-06-22T13:14:57;32.20;94.80
4874;DHT22;2451;49.970;9.068;2023-06-22T13:17:23;32.20;94.40
4874;DHT22;2451;49.970;9.068;2023-06-22T13:19:48;32.30;94.10
4874;DHT22;2451;49.970;9.068;2023-06-22T13:22:27;32.60;94.30
4874;DHT22;2451;49.970;9.068;2023-06-22T13:24:54;32.90;93.90
4874;DHT22;2451;49.970;9.068;2023-06-22T13:27:20;33.10;93.90
4874;DHT22;2451;49.970;9.068;2023-06-22T13:29:45;33.40;93.20
4874;DHT22;2451;49.970;9.068;2023-06-22T13:32:11;33.60;92.70
4874;DHT22;2451;49.970;9.068;2023-06-22T13:34:36;33.80;92.40
4874;DHT22;2451;49.970;9.068;2023-06-22T13:37:02;33.90;92.00
4874;DHT22;2451;49.970;9.068;2023-06-22T13:39:27;34.00;91.60
4874;DHT22;2451;49.970;9.068;2023-06-22T13:41:53;33.90;91.50
4874;DHT22;2451;49.970;9.068;2023-06-22T13:44:19;33.80;91.80
4874;DHT22;2451;49.970;9.068;2023-06-22T13:46:45;33.70;92.40
4874;DHT22;2451;49.970;9.068;2023-06-22T13:49:10;33.80;92.00
4874;DHT22;2451;49.970;9.068;2023-06-22T13:51:36;33.80;91.60
4874;DHT22;2451;49.970;9.068;2023-06-22T13:54:02;33.70;91.60
4874;DHT22;2451;49.970;9.068;2023-06-22T13:56:27;33.70;91.50
4874;DHT22;2451;49.970;9.068;2023-06-22T13:58:53;33.60;91.30
4874;DHT22;2451;49.970;9.068;2023-06-22T14:01:18;33.40;91.20
4874;DHT22;2451;49.970;9.068;2023-06-22T14:03:44;33.40;91.40
4874;DHT22;2451;49.970;9.068;2023-06-22T14:06:12;33.50;91.80
4874;DHT22;2451;49.970;9.068;2023-06-22T14:08:37;33.70;91.40
4874;DHT22;2451;49.970;9.068;2023-06-22T14:11:03;33.80;91.50
4874;DHT22;2451;49.970;9.068;2023-06-22T14:13:29;34.10;92.10
4874;DHT22;2451;49.970;9.068;2023-06-22T14:15:54;34.20;90.90
4874;DHT22;2451;49.970;9.068;2023-06-22T14:18:20;34.30;90.90
4874;DHT22;2451;49.970;9.068;2023-06-22T14:20:48;34.30;91.10
4874;DHT22;2451;49.970;9.068;2023-06-22T14:23:14;34.50;90.90
4874;DHT22;2451;49.970;9.068;2023-06-22T14:25:40;34.50;90.70
4874;DHT22;2451;49.970;9.068;2023-06-22T14:28:05;34.50;90.70
4874;DHT22;2451;49.970;9.068;2023-06-22T14:30:31;34.70;90.80
4874;DHT22;2451;49.970;9.068;2023-06-22T14:32:57;34.80;89.80
4874;DHT22;2451;49.970;9.068;2023-06-22T14:35:22;34.70;88.30
4874;DHT22;2451;49.970;9.068;2023-06-22T14:37:49;34.80;88.30
4874;DHT22;2451;49.970;9.068;2023-06-22T14:40:15;34.60;88.20
4874;DHT22;2451;49.970;9.068;2023-06-22T14:42:41;34.60;88.50
4874;DHT22;2451;49.970;9.068;2023-06-22T14:45:07;34.40;87.10
4874;DHT22;2451;49.970;9.068;2023-06-22T14:47:32;34.40;87.20
4874;DHT22;2451;49.970;9.068;2023-06-22T14:49:58;34.40;88.40
4874;DHT22;2451;49.970;9.068;2023-06-22T14:52:25;34.40;88.90
4874;DHT22;2451;49.970;9.068;2023-06-22T14:54:51;34.40;90.00
4874;DHT22;2451;49.970;9.068;2023-06-22T14:57:17;34.40;88.00
4874;DHT22;2451;49.970;9.068;2023-06-22T14:59:48;34.40;86.70
4874;DHT22;2451;49.970;9.068;2023-06-22T15:02:14;34.30;87.00
4874;DHT22;2451;49.970;9.068;2023-06-22T15:04:40;34.30;87.00
4874;DHT22;2451;49.970;9.068;2023-06-22T15:07:06;34.00;88.30
4874;DHT22;2451;49.970;9.068;2023-06-22T15:09:31;33.80;89.70
4874;DHT22;2451;49.970;9.068;2023-06-22T15:11:57;33.50;89.70
4874;DHT22;2451;49.970;9.068;2023-06-22T15:14:23;33.30;90.90
4874;DHT22;2451;49.970;9.068;2023-06-22T15:16:51;33.20;91.10
4874;DHT22;2451;49.970;9.068;2023-06-22T15:19:16;33.10;90.80
4874;DHT22;2451;49.970;9.068;2023-06-22T15:21:43;33.20;90.10
4874;DHT22;2451;49.970;9.068;2023-06-22T15:24:09;33.30;90.00
4874;DHT22;2451;49.970;9.068;2023-06-22T15:26:34;33.20;90.60
4874;DHT22;2451;49.970;9.068;2023-06-22T15:29:00;33.10;90.70
4874;DHT22;2451;49.970;9.068;2023-06-22T15:31:26;32.90;91.20
4874;DHT22;2451;49.970;9.068;2023-06-22T15:33:52;32.90;91.40
4874;DHT22;2451;49.970;9.068;2023-06-22T15:36:17;32.80;91.20
4874;DHT22;2451;49.970;9.068;2023-06-22T15:38:43;32.60;90.80
4874;DHT22;2451;49.970;9.068;2023-06-22T15:41:09;32.60;91.20
4874;DHT22;2451;49.970;9.068;2023-06-22T15:43:34;32.30;92.00
4874;DHT22;2451;49.970;9.068;2023-06-22T15:46:00;32.30;92.70
4874;DHT22;2451;49.970;9.068;2023-06-22T15:48:25;32.20;93.20
4874;DHT22;2451;49.970;9.068;2023-06-22T15:50:51;32.10;93.90
4874;DHT22;2451;49.970;9.068;2023-06-22T15:53:16;32.10;94.20
4874;DHT22;2451;49.970;9.068;2023-06-22T15:55:42;32.00;94.30
4874;DHT22;2451;49.970;9.068;2023-06-22T15:58:07;31.90;94.20
4874;DHT22;2451;49.970;9.068;2023-06-22T16:00:34;31.80;94.80